createdAt,value
2023-04-26T00:02:15.300Z,98116.22
2023-04-26T00:04:41.928Z,98121.06
2023-04-26T00:07:08.502Z,98117.16
2023-04-26T00:09:34.789Z,98119.81
2023-04-26T00:12:01.146Z,98113.84
2023-04-26T00:14:27.504Z,98119.31
2023-04-26T00:16:54.211Z,98113.22
2023-04-26T00:19:20.486Z,98114.03
2023-04-26T00:21:46.805Z,98116.69
2023-04-26T00:24:13.092Z,98112.03
2023-04-26T00:26:39.388Z,98116.34
2023-04-26T00:29:05.693Z,98121.97
2023-04-26T00:31:32.134Z,98128.44
2023-04-26T00:33:58.444Z,98114.78
2023-04-26T00:36:24.762Z,98128.38
2023-04-26T00:38:51.375Z,98127.47
2023-04-26T00:41:17.794Z,98126.19
2023-04-26T00:43:44.481Z,98126.09
2023-04-26T00:46:10.907Z,98133.94
2023-04-26T00:48:37.876Z,98131.84
2023-04-26T00:51:05.624Z,98128.25
2023-04-26T00:53:32.314Z,98129.16
2023-04-26T00:55:58.883Z,98134.19
2023-04-26T00:58:25.743Z,98131.44
2023-04-26T01:00:52.207Z,98133.97
2023-04-26T01:03:19.460Z,98127.59
2023-04-26T01:05:46.341Z,98130.41
2023-04-26T01:08:12.886Z,98135.22
2023-04-26T01:10:40.054Z,98134.75
2023-04-26T01:13:06.464Z,98131.03
2023-04-26T01:15:32.864Z,98133.34
2023-04-26T01:17:59.978Z,98140.00
2023-04-26T01:20:26.305Z,98143.00
2023-04-26T01:22:52.638Z,98146.81
2023-04-26T01:25:19.294Z,98142.88
2023-04-26T01:27:45.595Z,98146.88
2023-04-26T01:30:12.230Z,98152.47
2023-04-26T01:32:38.523Z,98151.84
2023-04-26T01:35:05.302Z,98149.72
2023-04-26T01:37:31.593Z,98145.63
2023-04-26T01:39:57.888Z,98151.91
2023-04-26T01:42:24.255Z,98151.44
2023-04-26T01:44:50.648Z,98147.34
2023-04-26T01:47:17.048Z,98150.31
2023-04-26T01:49:43.500Z,98151.63
2023-04-26T01:52:09.789Z,98153.81
2023-04-26T01:54:36.191Z,98148.06
2023-04-26T01:57:02.527Z,98142.16
2023-04-26T01:59:29.017Z,98150.06
2023-04-26T02:01:55.356Z,98158.97
2023-04-26T02:04:21.781Z,98156.97
2023-04-26T02:06:48.092Z,98151.34
2023-04-26T02:09:14.419Z,98156.78
2023-04-26T02:11:40.715Z,98157.25
2023-04-26T02:14:07.253Z,98152.97
2023-04-26T02:16:33.602Z,98154.13
2023-04-26T02:19:00.002Z,98158.09
2023-04-26T02:21:26.373Z,98156.16
2023-04-26T02:23:52.943Z,98155.69
2023-04-26T02:26:19.248Z,98160.19
2023-04-26T02:28:45.670Z,98162.31
2023-04-26T02:31:11.962Z,98166.31
2023-04-26T02:33:38.256Z,98160.91
2023-04-26T02:36:10.641Z,98159.78
2023-04-26T02:38:41.964Z,98159.50
2023-04-26T02:41:08.237Z,98157.16
2023-04-26T02:43:39.605Z,98155.69
2023-04-26T02:46:11.078Z,98154.56
2023-04-26T02:48:37.550Z,98161.00
2023-04-26T02:51:04.044Z,98159.53
2023-04-26T02:53:30.328Z,98164.16
2023-04-26T02:55:56.702Z,98163.50
2023-04-26T02:58:23.050Z,98160.06
2023-04-26T03:00:49.492Z,98164.00
2023-04-26T03:03:16.067Z,98164.34
2023-04-26T03:05:42.649Z,98170.94
2023-04-26T03:08:08.968Z,98165.19
2023-04-26T03:10:35.213Z,98164.38
2023-04-26T03:13:01.633Z,98167.53
2023-04-26T03:15:27.911Z,98170.50
2023-04-26T03:17:54.220Z,98161.78
2023-04-26T03:20:20.571Z,98167.69
2023-04-26T03:22:46.877Z,98166.03
2023-04-26T03:25:13.175Z,98166.38
2023-04-26T03:27:39.575Z,98178.09
2023-04-26T03:30:06.648Z,98173.97
2023-04-26T03:32:33.065Z,98175.31
2023-04-26T03:34:59.428Z,98179.91
2023-04-26T03:37:25.680Z,98177.63
2023-04-26T03:39:52.118Z,98176.16
2023-04-26T03:42:18.403Z,98180.91
2023-04-26T03:44:44.711Z,98177.44
2023-04-26T03:47:11.010Z,98183.03
2023-04-26T03:49:37.287Z,98183.22
2023-04-26T03:52:03.771Z,98187.16
2023-04-26T03:54:30.029Z,98183.41
2023-04-26T03:56:56.417Z,98188.81
2023-04-26T03:59:22.702Z,98186.66
2023-04-26T04:01:49.008Z,98187.66
2023-04-26T04:04:15.471Z,98190.63
2023-04-26T04:06:41.976Z,98194.41
2023-04-26T04:09:08.379Z,98190.94
2023-04-26T04:11:34.740Z,98196.22
2023-04-26T04:14:01.113Z,98193.09
2023-04-26T04:16:27.499Z,98194.91
2023-04-26T04:18:54.126Z,98190.28
2023-04-26T04:21:20.632Z,98191.09
2023-04-26T04:23:47.014Z,98191.09
2023-04-26T04:26:13.390Z,98193.25
2023-04-26T04:28:40.152Z,98190.28
2023-04-26T04:31:06.504Z,98195.25
2023-04-26T04:33:32.812Z,98194.91
2023-04-26T04:35:59.197Z,98206.59
2023-04-26T04:38:25.512Z,98205.25
2023-04-26T04:40:51.811Z,98205.25
2023-04-26T04:43:18.168Z,98210.84
2023-04-26T04:45:44.461Z,98207.72
2023-04-26T04:48:11.040Z,98217.59
2023-04-26T04:50:39.098Z,98217.72
2023-04-26T04:53:05.532Z,98221.53
2023-04-26T04:55:31.824Z,98214.28
2023-04-26T04:57:58.111Z,98218.06
2023-04-26T05:00:24.714Z,98227.91
2023-04-26T05:02:51.141Z,98224.59
2023-04-26T05:05:17.696Z,98225.94
2023-04-26T05:07:43.996Z,98227.56
2023-04-26T05:10:10.975Z,98229.03
2023-04-26T05:12:37.310Z,98232.97
2023-04-26T05:15:04.548Z,98235.75
2023-04-26T05:17:32.651Z,98236.59
2023-04-26T05:19:58.971Z,98237.88
2023-04-26T05:22:27.272Z,98249.75
2023-04-26T05:24:53.655Z,98239.19
2023-04-26T05:27:20.019Z,98255.78
2023-04-26T05:29:46.391Z,98251.97
2023-04-26T05:32:12.855Z,98246.78
2023-04-26T05:34:39.267Z,98249.88
2023-04-26T05:37:05.566Z,98248.66
2023-04-26T05:39:31.958Z,98244.81
2023-04-26T05:41:58.304Z,98253.31
2023-04-26T05:44:24.566Z,98261.22
2023-04-26T05:46:50.828Z,98254.44
2023-04-26T05:49:17.170Z,98260.06
2023-04-26T05:51:43.582Z,98263.72
2023-04-26T05:54:09.939Z,98264.59
2023-04-26T05:56:36.221Z,98268.88
2023-04-26T05:59:02.565Z,98268.22
2023-04-26T06:01:28.946Z,98271.09
2023-04-26T06:03:57.864Z,98271.72
2023-04-26T06:06:26.604Z,98274.09
2023-04-26T06:08:52.884Z,98270.19
2023-04-26T06:11:19.249Z,98270.63
2023-04-26T06:13:45.540Z,98270.19
2023-04-26T06:16:11.822Z,98277.41
2023-04-26T06:18:38.084Z,98279.81
2023-04-26T06:21:05.208Z,98273.34
2023-04-26T06:23:31.517Z,98282.47
2023-04-26T06:25:57.912Z,98280.66
2023-04-26T06:28:24.226Z,98279.78
2023-04-26T06:30:50.515Z,98282.25
2023-04-26T06:33:17.031Z,98276.50
2023-04-26T06:35:43.328Z,98279.28
2023-04-26T06:38:09.755Z,98280.56
2023-04-26T06:40:36.156Z,98284.03
2023-04-26T06:43:02.879Z,98283.84
2023-04-26T06:45:29.692Z,98290.25
2023-04-26T06:47:56.136Z,98285.66
2023-04-26T06:50:22.742Z,98275.66
2023-04-26T06:52:49.049Z,98274.72
2023-04-26T06:55:15.352Z,98277.59
2023-04-26T06:57:41.622Z,98288.16
2023-04-26T07:00:08.643Z,98279.38
2023-04-26T07:02:35.156Z,98281.13
2023-04-26T07:05:01.723Z,98289.16
2023-04-26T07:07:28.437Z,98277.69
2023-04-26T07:09:54.817Z,98275.91
2023-04-26T07:12:21.101Z,98279.41
2023-04-26T07:14:47.399Z,98279.19
2023-04-26T07:17:13.766Z,98283.88
2023-04-26T07:19:40.066Z,98291.25
2023-04-26T07:22:06.394Z,98277.00
2023-04-26T07:24:32.699Z,98282.56
2023-04-26T07:26:59.094Z,98286.50
2023-04-26T07:29:25.407Z,98280.59
2023-04-26T07:31:51.725Z,98278.56
2023-04-26T07:34:18.045Z,98287.75
2023-04-26T07:36:44.327Z,98276.59
2023-04-26T07:39:10.640Z,98279.16
2023-04-26T07:41:37.156Z,98281.94
2023-04-26T07:44:03.664Z,98277.97
2023-04-26T07:46:29.974Z,98275.31
2023-04-26T07:48:56.257Z,98283.97
2023-04-26T07:51:22.581Z,98288.53
2023-04-26T07:53:48.855Z,98287.00
2023-04-26T07:56:15.153Z,98278.84
2023-04-26T07:58:41.679Z,98286.22
2023-04-26T08:01:07.986Z,98280.47
2023-04-26T08:03:34.472Z,98287.81
2023-04-26T08:06:01.406Z,98284.66
2023-04-26T08:08:28.058Z,98271.44
2023-04-26T08:10:54.759Z,98270.41
2023-04-26T08:13:21.555Z,98278.81
2023-04-26T08:15:48.214Z,98278.66
2023-04-26T08:18:14.526Z,98284.34
2023-04-26T08:20:41.007Z,98283.34
2023-04-26T08:23:07.327Z,98280.44
2023-04-26T08:25:33.603Z,98291.94
2023-04-26T08:27:59.884Z,98291.75
2023-04-26T08:30:26.184Z,98288.44
2023-04-26T08:32:52.566Z,98293.72
2023-04-26T08:35:18.999Z,98281.03
2023-04-26T08:37:45.386Z,98282.72
2023-04-26T08:40:11.725Z,98290.31
2023-04-26T08:42:42.335Z,98283.50
2023-04-26T08:45:09.030Z,98281.44
2023-04-26T08:47:42.729Z,98289.19
2023-04-26T08:50:11.630Z,98277.88
2023-04-26T08:52:39.557Z,98283.75
2023-04-26T08:55:07.752Z,98276.13
2023-04-26T08:57:34.189Z,98269.94
2023-04-26T09:00:02.332Z,98268.81
2023-04-26T09:02:29.467Z,98264.22
2023-04-26T09:04:56.025Z,98276.97
2023-04-26T09:07:30.316Z,98278.91
2023-04-26T09:09:58.528Z,98268.47
2023-04-26T09:12:25.327Z,98272.19
2023-04-26T09:14:51.778Z,98273.72
2023-04-26T09:17:30.361Z,98274.13
2023-04-26T09:19:57.400Z,98275.94
2023-04-26T09:22:36.984Z,98272.03
2023-04-26T09:25:04.110Z,98268.84
2023-04-26T09:27:41.084Z,98270.59
2023-04-26T09:30:14.775Z,98268.38
2023-04-26T09:32:54.952Z,98265.00
2023-04-26T09:35:33.479Z,98267.31
2023-04-26T09:38:08.610Z,98258.22
2023-04-26T09:40:46.016Z,98262.78
2023-04-26T09:43:22.457Z,98257.38
2023-04-26T09:45:53.881Z,98259.06
2023-04-26T09:48:28.509Z,98255.47
2023-04-26T09:51:08.320Z,98254.56
2023-04-26T09:53:35.615Z,98251.25
2023-04-26T09:56:12.041Z,98248.38
2023-04-26T09:58:47.914Z,98256.28
2023-04-26T10:01:15.799Z,98248.94
2023-04-26T10:03:42.454Z,98248.47
2023-04-26T10:06:09.227Z,98254.09
2023-04-26T10:08:36.181Z,98249.31
2023-04-26T10:11:06.898Z,98245.16
2023-04-26T10:13:33.516Z,98237.75
2023-04-26T10:16:00.493Z,98254.50
2023-04-26T10:18:26.894Z,98240.53
2023-04-26T10:20:57.244Z,98238.28
2023-04-26T10:23:24.579Z,98238.66
2023-04-26T10:25:51.411Z,98231.69
2023-04-26T10:28:40.456Z,98236.25
2023-04-26T10:31:06.823Z,98236.91
2023-04-26T10:33:33.457Z,98231.09
2023-04-26T10:36:07.523Z,98230.47
2023-04-26T10:38:35.776Z,98234.69
2023-04-26T10:41:31.050Z,98231.72
2023-04-26T10:43:59.196Z,98238.22
2023-04-26T10:46:38.808Z,98229.28
2023-04-26T10:49:19.166Z,98240.53
2023-04-26T10:52:10.966Z,98232.66
2023-04-26T10:54:57.138Z,98229.94
2023-04-26T10:57:47.453Z,98225.22
2023-04-26T11:00:31.341Z,98213.84
2023-04-26T11:03:02.547Z,98221.34
2023-04-26T11:06:05.698Z,98215.13
2023-04-26T11:08:32.036Z,98213.75
2023-04-26T11:11:06.573Z,98213.06
2023-04-26T11:13:35.227Z,98217.13
2023-04-26T11:16:03.521Z,98222.13
2023-04-26T11:18:30.752Z,98219.09
2023-04-26T11:20:58.387Z,98214.50
2023-04-26T11:23:27.432Z,98211.53
2023-04-26T11:25:54.152Z,98205.91
2023-04-26T11:28:20.822Z,98208.91
2023-04-26T11:30:49.301Z,98212.53
2023-04-26T11:33:20.700Z,98204.25
2023-04-26T11:35:47.249Z,98204.38
2023-04-26T11:38:13.958Z,98201.25
2023-04-26T11:40:40.392Z,98199.06
2023-04-26T11:43:07.642Z,98195.00
2023-04-26T11:45:35.518Z,98196.31
2023-04-26T11:48:03.388Z,98193.81
2023-04-26T11:50:32.213Z,98188.88
2023-04-26T11:53:00.362Z,98196.34
2023-04-26T11:55:31.304Z,98198.78
2023-04-26T11:57:58.880Z,98201.59
2023-04-26T12:00:26.738Z,98198.13
2023-04-26T12:02:53.881Z,98195.69
2023-04-26T12:05:21.155Z,98195.91
2023-04-26T12:07:52.290Z,98201.66
2023-04-26T12:10:20.472Z,98188.09
2023-04-26T12:12:51.228Z,98184.28
2023-04-26T12:15:25.318Z,98179.78
2023-04-26T12:17:56.763Z,98191.56
2023-04-26T12:20:27.486Z,98181.44
2023-04-26T12:23:05.262Z,98191.69
2023-04-26T12:25:33.697Z,98172.34
2023-04-26T12:28:00.869Z,98170.56
2023-04-26T12:30:29.086Z,98162.69
2023-04-26T12:33:05.797Z,98168.09
2023-04-26T12:35:42.180Z,98166.47
2023-04-26T12:38:08.649Z,98169.28
2023-04-26T12:40:34.962Z,98165.88
2023-04-26T12:43:01.318Z,98161.97
2023-04-26T12:45:27.612Z,98169.38
2023-04-26T12:47:54.478Z,98163.34
2023-04-26T12:50:21.081Z,98168.63
2023-04-26T12:52:47.608Z,98170.44
2023-04-26T12:55:15.667Z,98170.22
2023-04-26T12:57:43.820Z,98171.03
2023-04-26T13:00:17.272Z,98161.44
2023-04-26T13:02:44.194Z,98158.44
2023-04-26T13:05:11.052Z,98158.59
2023-04-26T13:07:40.576Z,98159.47
2023-04-26T13:10:07.914Z,98164.56
2023-04-26T13:12:34.898Z,98157.34
2023-04-26T13:15:01.336Z,98144.41
2023-04-26T13:17:28.032Z,98146.97
2023-04-26T13:19:54.404Z,98153.03
2023-04-26T13:22:20.783Z,98143.34
2023-04-26T13:24:47.050Z,98154.28
2023-04-26T13:27:13.777Z,98144.91
2023-04-26T13:29:40.952Z,98154.09
2023-04-26T13:32:07.673Z,98153.72
2023-04-26T13:34:34.233Z,98152.75
2023-04-26T13:37:00.562Z,98158.34
2023-04-26T13:39:27.858Z,98152.59
2023-04-26T13:41:54.309Z,98135.03
2023-04-26T13:44:20.806Z,98139.25
2023-04-26T13:46:47.436Z,98144.25
2023-04-26T13:49:13.882Z,98150.25
2023-04-26T13:51:40.588Z,98142.13
2023-04-26T13:54:06.994Z,98145.84
2023-04-26T13:56:33.451Z,98143.59
2023-04-26T13:59:00.521Z,98150.81
2023-04-26T14:01:27.414Z,98151.78
2023-04-26T14:03:55.888Z,98151.78
2023-04-26T14:06:22.730Z,98150.56
2023-04-26T14:08:49.025Z,98150.34
2023-04-26T14:11:15.484Z,98147.41
2023-04-26T14:13:41.763Z,98150.91
2023-04-26T14:16:08.177Z,98139.53
2023-04-26T14:18:34.539Z,98148.94
2023-04-26T14:21:00.968Z,98149.53
2023-04-26T14:23:27.323Z,98149.03
2023-04-26T14:25:53.834Z,98138.09
2023-04-26T14:28:20.578Z,98152.22
2023-04-26T14:30:46.869Z,98145.81
2023-04-26T14:33:13.372Z,98146.31
2023-04-26T14:35:39.968Z,98149.72
2023-04-26T14:38:06.240Z,98157.09
2023-04-26T14:40:32.996Z,98151.38
2023-04-26T14:42:59.302Z,98162.81
2023-04-26T14:45:36.861Z,98151.66
2023-04-26T14:48:10.467Z,98146.31
2023-04-26T14:50:36.758Z,98138.00
2023-04-26T14:53:03.102Z,98135.31
2023-04-26T14:55:29.548Z,98136.69
2023-04-26T14:57:55.848Z,98130.06
2023-04-26T15:00:22.667Z,98134.56
2023-04-26T15:02:49.148Z,98137.03
2023-04-26T15:05:15.653Z,98146.16
2023-04-26T15:07:41.929Z,98134.59
2023-04-26T15:10:08.726Z,98128.75
2023-04-26T15:12:35.530Z,98127.13
2023-04-26T15:15:02.573Z,98123.16
2023-04-26T15:17:31.962Z,98131.78
2023-04-26T15:19:58.471Z,98133.06
2023-04-26T15:22:24.823Z,98129.94
2023-04-26T15:24:51.216Z,98128.56
2023-04-26T15:27:17.580Z,98118.19
2023-04-26T15:29:43.969Z,98127.53
2023-04-26T15:32:10.334Z,98123.72
2023-04-26T15:34:40.426Z,98137.69
2023-04-26T15:37:06.932Z,98124.78
2023-04-26T15:39:33.254Z,98135.41
2023-04-26T15:41:59.547Z,98131.13
2023-04-26T15:44:25.924Z,98133.22
2023-04-26T15:46:52.218Z,98132.97
2023-04-26T15:49:18.567Z,98124.84
2023-04-26T15:51:44.852Z,98119.25
2023-04-26T15:54:11.188Z,98128.03
2023-04-26T15:56:37.504Z,98126.41
2023-04-26T15:59:03.845Z,98130.53
2023-04-26T16:01:30.192Z,98121.44
2023-04-26T16:03:56.719Z,98119.25
2023-04-26T16:06:23.108Z,98117.63
2023-04-26T16:08:49.420Z,98121.16
2023-04-26T16:11:15.737Z,98125.38
2023-04-26T16:13:42.074Z,98116.19
2023-04-26T16:16:08.640Z,98117.78
2023-04-26T16:18:35.038Z,98119.34
2023-04-26T16:21:04.863Z,98116.88
2023-04-26T16:23:31.183Z,98121.19
2023-04-26T16:25:57.650Z,98112.88
2023-04-26T16:28:23.951Z,98112.66
2023-04-26T16:30:50.245Z,98115.38
2023-04-26T16:33:16.550Z,98108.75
2023-04-26T16:35:42.993Z,98116.28
2023-04-26T16:38:09.282Z,98108.84
2023-04-26T16:40:35.596Z,98105.72
2023-04-26T16:43:01.916Z,98116.00
2023-04-26T16:45:28.268Z,98106.16
2023-04-26T16:47:54.642Z,98104.66
2023-04-26T16:50:21.028Z,98109.59
2023-04-26T16:52:47.416Z,98110.03
2023-04-26T16:55:13.768Z,98112.72
2023-04-26T16:57:40.068Z,98111.06
2023-04-26T17:00:07.018Z,98113.47
2023-04-26T17:02:33.521Z,98120.00
2023-04-26T17:05:00.143Z,98112.13
2023-04-26T17:07:26.708Z,98108.72
2023-04-26T17:09:53.028Z,98112.75
2023-04-26T17:12:19.310Z,98119.00
2023-04-26T17:14:45.605Z,98125.69
2023-04-26T17:17:11.946Z,98119.72
2023-04-26T17:19:38.273Z,98121.13
2023-04-26T17:22:04.609Z,98125.41
2023-04-26T17:24:30.903Z,98125.56
2023-04-26T17:26:57.284Z,98126.59
2023-04-26T17:29:23.569Z,98122.38
2023-04-26T17:31:49.968Z,98128.69
2023-04-26T17:34:16.282Z,98127.31
2023-04-26T17:36:42.663Z,98137.31
2023-04-26T17:39:08.970Z,98128.47
2023-04-26T17:41:35.276Z,98137.31
2023-04-26T17:44:01.572Z,98133.69
2023-04-26T17:46:28.105Z,98137.06
2023-04-26T17:48:54.540Z,98135.94
2023-04-26T17:51:20.933Z,98143.31
2023-04-26T17:53:47.261Z,98149.00
2023-04-26T17:56:13.569Z,98146.72
2023-04-26T17:58:39.867Z,98150.00
2023-04-26T18:01:06.388Z,98153.03
2023-04-26T18:03:32.852Z,98152.31
2023-04-26T18:05:59.279Z,98149.25
2023-04-26T18:08:25.628Z,98149.75
2023-04-26T18:10:52.045Z,98158.81
2023-04-26T18:13:18.513Z,98159.81
2023-04-26T18:15:45.086Z,98164.66
2023-04-26T18:18:11.402Z,98171.97
2023-04-26T18:20:37.770Z,98170.69
2023-04-26T18:23:04.195Z,98177.03
2023-04-26T18:25:30.490Z,98174.03
2023-04-26T18:27:56.775Z,98178.47
2023-04-26T18:30:23.199Z,98172.34
2023-04-26T18:32:51.558Z,98180.84
2023-04-26T18:35:18.116Z,98183.56
2023-04-26T18:37:44.454Z,98180.31
2023-04-26T18:40:11.392Z,98176.28
2023-04-26T18:42:37.687Z,98177.31
2023-04-26T18:45:05.705Z,98186.38
2023-04-26T18:47:32.136Z,98189.91
2023-04-26T18:49:58.580Z,98188.94
2023-04-26T18:52:24.871Z,98182.44
2023-04-26T18:54:51.172Z,98201.31
2023-04-26T18:57:17.441Z,98198.66
2023-04-26T18:59:43.711Z,98201.34
2023-04-26T19:02:10.154Z,98209.16
2023-04-26T19:04:36.873Z,98208.38
2023-04-26T19:07:03.311Z,98208.56
2023-04-26T19:09:31.987Z,98209.00
2023-04-26T19:12:01.388Z,98215.97
2023-04-26T19:14:27.682Z,98214.56
2023-04-26T19:16:54.018Z,98204.94
2023-04-26T19:19:20.315Z,98206.41
2023-04-26T19:21:46.627Z,98217.44
2023-04-26T19:24:12.926Z,98214.16
2023-04-26T19:26:39.294Z,98219.44
2023-04-26T19:29:06.825Z,98218.00
2023-04-26T19:31:33.702Z,98217.81
2023-04-26T19:34:00.052Z,98214.91
2023-04-26T19:36:26.344Z,98221.00
2023-04-26T19:38:52.671Z,98223.25
2023-04-26T19:41:18.964Z,98225.91
2023-04-26T19:43:45.301Z,98223.03
2023-04-26T19:46:13.053Z,98231.59
2023-04-26T19:48:40.099Z,98226.44
2023-04-26T19:51:06.459Z,98226.84
2023-04-26T19:53:33.174Z,98224.53
2023-04-26T19:55:59.470Z,98235.53
2023-04-26T19:58:25.750Z,98229.13
2023-04-26T20:00:52.070Z,98229.47
2023-04-26T20:03:18.523Z,98226.19
2023-04-26T20:05:44.905Z,98234.91
2023-04-26T20:08:11.236Z,98234.88
2023-04-26T20:10:37.650Z,98233.00
2023-04-26T20:13:03.938Z,98242.75
2023-04-26T20:15:32.233Z,98234.72
2023-04-26T20:18:00.596Z,98239.34
2023-04-26T20:20:26.955Z,98239.50
2023-04-26T20:22:53.243Z,98239.44
2023-04-26T20:25:19.905Z,98245.50
2023-04-26T20:27:46.973Z,98243.44
2023-04-26T20:30:14.863Z,98245.66
2023-04-26T20:32:41.435Z,98246.84
2023-04-26T20:35:08.232Z,98247.88
2023-04-26T20:37:34.790Z,98250.88
2023-04-26T20:40:01.289Z,98249.41
2023-04-26T20:42:27.673Z,98248.34
2023-04-26T20:44:53.963Z,98250.94
2023-04-26T20:47:20.232Z,98257.81
2023-04-26T20:49:46.593Z,98260.38
2023-04-26T20:52:12.938Z,98257.88
2023-04-26T20:54:39.362Z,98263.53
2023-04-26T20:57:05.721Z,98264.56
2023-04-26T20:59:32.025Z,98257.59
2023-04-26T21:01:58.433Z,98265.94
2023-04-26T21:04:25.274Z,98268.78
2023-04-26T21:06:51.744Z,98265.66
2023-04-26T21:09:18.047Z,98268.66
2023-04-26T21:11:47.652Z,98263.56
2023-04-26T21:14:13.946Z,98266.22
2023-04-26T21:16:40.842Z,98263.38
2023-04-26T21:19:07.827Z,98264.81
2023-04-26T21:21:34.572Z,98257.06
2023-04-26T21:24:00.871Z,98269.13
2023-04-26T21:26:27.134Z,98269.31
2023-04-26T21:28:53.557Z,98276.00
2023-04-26T21:31:19.872Z,98285.50
2023-04-26T21:33:46.161Z,98267.97
2023-04-26T21:36:12.565Z,98274.09
2023-04-26T21:38:38.871Z,98270.16
2023-04-26T21:41:05.233Z,98271.19
2023-04-26T21:43:31.530Z,98262.03
2023-04-26T21:45:58.351Z,98266.34
2023-04-26T21:48:25.750Z,98273.44
2023-04-26T21:50:52.280Z,98275.28
2023-04-26T21:53:18.619Z,98271.44
2023-04-26T21:55:50.780Z,98277.56
2023-04-26T21:58:17.450Z,98284.03
2023-04-26T22:00:43.918Z,98281.13
2023-04-26T22:03:10.529Z,98282.81
2023-04-26T22:05:37.091Z,98283.56
2023-04-26T22:08:03.714Z,98279.66
2023-04-26T22:10:30.278Z,98277.56
2023-04-26T22:12:56.577Z,98281.03
2023-04-26T22:15:23.276Z,98282.47
2023-04-26T22:17:49.688Z,98284.50
2023-04-26T22:20:16.070Z,98289.78
2023-04-26T22:22:42.404Z,98284.31
2023-04-26T22:25:09.218Z,98290.44
2023-04-26T22:27:35.505Z,98290.88
2023-04-26T22:30:09.418Z,98287.22
2023-04-26T22:32:47.077Z,98299.44
2023-04-26T22:35:13.537Z,98296.81
2023-04-26T22:37:40.086Z,98295.16
2023-04-26T22:40:07.168Z,98299.63
2023-04-26T22:42:33.749Z,98301.47
2023-04-26T22:45:00.281Z,98306.94
2023-04-26T22:47:26.867Z,98308.78
2023-04-26T22:49:53.404Z,98307.13
2023-04-26T22:52:28.290Z,98301.00
2023-04-26T22:54:58.138Z,98303.03
2023-04-26T22:57:24.936Z,98305.84
2023-04-26T22:59:51.501Z,98305.75
2023-04-26T23:02:18.048Z,98308.31
2023-04-26T23:04:44.856Z,98304.94
2023-04-26T23:07:11.454Z,98303.84
2023-04-26T23:09:38.104Z,98310.84
2023-04-26T23:12:05.046Z,98314.84
2023-04-26T23:14:31.930Z,98306.28
2023-04-26T23:16:58.674Z,98306.47
2023-04-26T23:19:25.709Z,98306.00
2023-04-26T23:21:52.508Z,98313.47
2023-04-26T23:24:19.116Z,98314.00
2023-04-26T23:26:45.674Z,98318.00
2023-04-26T23:29:15.422Z,98326.09
2023-04-26T23:31:42.428Z,98319.19
2023-04-26T23:34:09.174Z,98329.94
2023-04-26T23:36:35.660Z,98332.13
2023-04-26T23:39:02.265Z,98335.66
2023-04-26T23:41:28.885Z,98335.06
2023-04-26T23:43:55.555Z,98335.94
2023-04-26T23:46:22.088Z,98328.84
2023-04-26T23:48:48.638Z,98329.94
2023-04-26T23:51:15.148Z,98326.94
2023-04-26T23:53:41.595Z,98327.59
2023-04-26T23:56:08.198Z,98332.22
2023-04-26T23:58:34.699Z,98328.41
